Time,TemperatureF,DewpointF,PressureIn,WindDirection,WindDirectionDegrees,WindSpeedMPH,WindSpeedGustMPH,Humidity,HourlyPrecipIn,Conditions,Clouds,dailyrainin,SoftwareType,DateUTC
2016-02-09 00:10:00,43.0,42.0,30.31,WNW,300,0.0,-999.0,96,-99.99,,,0.00,weatherlink.com 1.10,2016-02-09 08:10:00,
2016-02-09 00:40:00,42.5,42.0,30.30,WNW,300,0.0,-999.0,96,-99.99,,,0.00,weatherlink.com 1.10,2016-02-09 08:40:00,
2016-02-09 00:55:00,42.2,41.0,30.29,WNW,300,0.0,-999.0,97,-99.99,,,0.00,weatherlink.com 1.10,2016-02-09 08:55:00,
2016-02-09 01:18:00,41.9,41.0,30.29,WNW,300,0.0,-999.0,97,-99.99,,,0.00,weatherlink.com 1.10,2016-02-09 09:18:00,
2016-02-09 01:25:00,41.9,41.0,30.27,WNW,300,0.0,-999.0,97,-99.99,,,0.00,weatherlink.com 1.10,2016-02-09 09:25:00,
2016-02-09 01:40:00,41.6,41.0,30.27,WNW,300,0.0,-999.0,97,-99.99,,,0.00,weatherlink.com 1.10,2016-02-09 09:40:00,
2016-02-09 01:55:00,41.7,41.0,30.27,WNW,300,0.0,-999.0,97,-99.99,,,0.00,weatherlink.com 1.10,2016-02-09 09:55:00,
2016-02-09 02:10:00,41.6,41.0,30.27,WNW,300,0.0,-999.0,97,-99.99,,,0.00,weatherlink.com 1.10,2016-02-09 10:10:00,
2016-02-09 02:25:00,41.4,41.0,30.27,WNW,300,0.0,-999.0,97,-99.99,,,0.00,weatherlink.com 1.10,2016-02-09 10:25:00,
2016-02-09 02:40:00,41.4,41.0,30.26,WNW,300,0.0,-999.0,97,-99.99,,,0.00,weatherlink.com 1.10,2016-02-09 10:40:00,
2016-02-09 02:55:00,41.4,41.0,30.25,WNW,300,0.0,-999.0,97,-99.99,,,0.00,weatherlink.com 1.10,2016-02-09 10:55:00,
2016-02-09 03:18:00,41.4,41.0,30.25,WNW,300,2.0,-999.0,98,-99.99,,,0.00,weatherlink.com 1.10,2016-02-09 11:18:00,
2016-02-09 03:25:00,41.0,41.0,30.25,WNW,297,0.0,-999.0,98,-99.99,,,0.01,weatherlink.com 1.10,2016-02-09 11:25:00,
2016-02-09 03:55:00,40.5,40.0,30.24,WNW,297,0.0,-999.0,98,-99.99,,,0.01,weatherlink.com 1.10,2016-02-09 11:55:00,
2016-02-09 04:10:00,40.8,40.0,30.23,WNW,297,0.0,-999.0,98,-99.99,,,0.01,weatherlink.com 1.10,2016-02-09 12:10:00,
2016-02-09 04:25:00,40.7,40.0,30.23,WNW,297,0.0,-999.0,98,-99.99,,,0.01,weatherlink.com 1.10,2016-02-09 12:25:00,
2016-02-09 04:40:00,40.5,40.0,30.23,WNW,297,0.0,-999.0,98,-99.99,,,0.01,weatherlink.com 1.10,2016-02-09 12:40:00,
2016-02-09 04:55:00,40.2,40.0,30.23,WNW,297,0.0,-999.0,98,-99.99,,,0.01,weatherlink.com 1.10,2016-02-09 12:55:00,
2016-02-09 05:10:00,40.1,40.0,30.22,WNW,297,0.0,-999.0,98,-99.99,,,0.01,weatherlink.com 1.10,2016-02-09 13:10:00,
2016-02-09 05:25:00,39.8,39.0,30.22,WNW,297,0.0,-999.0,98,-99.99,,,0.01,weatherlink.com 1.10,2016-02-09 13:25:00,
2016-02-09 05:40:00,39.6,39.0,30.22,WNW,297,0.0,-999.0,98,-99.99,,,0.01,weatherlink.com 1.10,2016-02-09 13:40:00,
2016-02-09 05:55:00,39.6,39.0,30.21,WNW,297,0.0,-999.0,98,-99.99,,,0.01,weatherlink.com 1.10,2016-02-09 13:55:00,
2016-02-09 06:25:00,39.3,39.0,30.20,WNW,297,0.0,-999.0,98,-99.99,,,0.01,weatherlink.com 1.10,2016-02-09 14:25:00,
2016-02-09 06:40:00,39.2,39.0,30.20,WNW,297,0.0,-999.0,98,-99.99,,,0.01,weatherlink.com 1.10,2016-02-09 14:40:00,
2016-02-09 06:55:00,39.1,39.0,30.20,WNW,297,0.0,-999.0,98,-99.99,,,0.01,weatherlink.com 1.10,2016-02-09 14:55:00,
2016-02-09 07:10:00,39.1,39.0,30.20,WNW,297,0.0,-999.0,98,-99.99,,,0.01,weatherlink.com 1.10,2016-02-09 15:10:00,
2016-02-09 07:25:00,39.1,39.0,30.20,WNW,297,0.0,-999.0,98,-99.99,,,0.01,weatherlink.com 1.10,2016-02-09 15:25:00,
2016-02-09 07:40:00,39.2,39.0,30.20,WNW,297,0.0,-999.0,98,-99.99,,,0.01,weatherlink.com 1.10,2016-02-09 15:40:00,
2016-02-09 07:55:00,39.3,39.0,30.21,WNW,297,0.0,-999.0,98,-99.99,,,0.01,weatherlink.com 1.10,2016-02-09 15:55:00,
2016-02-09 08:10:00,39.4,39.0,30.20,WNW,297,0.0,-999.0,98,-99.99,,,0.01,weatherlink.com 1.10,2016-02-09 16:10:00,
2016-02-09 08:25:00,40.0,40.0,30.20,WNW,297,0.0,-999.0,99,-99.99,,,0.01,weatherlink.com 1.10,2016-02-09 16:25:00,
2016-02-09 08:40:00,41.5,41.0,30.20,WNW,297,0.0,-999.0,99,-99.99,,,0.01,weatherlink.com 1.10,2016-02-09 16:40:00,
2016-02-09 08:56:00,43.3,43.0,30.21,WNW,297,0.0,-999.0,99,-99.99,,,0.01,weatherlink.com 1.10,2016-02-09 16:56:00,
2016-02-09 09:19:00,44.8,45.0,30.21,WNW,297,0.0,-999.0,99,-99.99,,,0.01,weatherlink.com 1.10,2016-02-09 17:19:00,
2016-02-09 09:26:00,45.6,45.0,30.21,NNE,29,0.0,-999.0,98,-99.99,,,0.01,weatherlink.com 1.10,2016-02-09 17:26:00,
2016-02-09 09:41:00,46.2,45.0,30.22,ENE,73,0.0,-999.0,95,-99.99,,,0.01,weatherlink.com 1.10,2016-02-09 17:41:00,
2016-02-09 09:56:00,46.9,45.0,30.21,NE,56,0.0,-999.0,92,-99.99,,,0.01,weatherlink.com 1.10,2016-02-09 17:56:00,
2016-02-09 10:19:00,47.7,45.0,30.21,ENE,78,0.0,-999.0,90,-99.99,,,0.01,weatherlink.com 1.10,2016-02-09 18:19:00,
2016-02-09 10:26:00,48.9,46.0,30.20,ENE,78,0.0,-999.0,88,-99.99,,,0.01,weatherlink.com 1.10,2016-02-09 18:26:00,
2016-02-09 10:41:00,50.9,47.0,30.20,East,87,0.0,-999.0,86,-99.99,,,0.01,weatherlink.com 1.10,2016-02-09 18:41:00,
2016-02-09 10:56:00,53.2,48.0,30.20,ESE,112,0.0,-999.0,81,-99.99,,,0.01,weatherlink.com 1.10,2016-02-09 18:56:00,
2016-02-09 11:19:00,54.4,48.0,30.20,ESE,103,0.0,-999.0,80,-99.99,,,0.01,weatherlink.com 1.10,2016-02-09 19:19:00,
2016-02-09 11:26:00,55.5,49.0,30.20,ESE,103,0.0,-999.0,79,-99.99,,,0.01,weatherlink.com 1.10,2016-02-09 19:26:00,
2016-02-09 11:56:00,56.0,49.0,30.19,North,350,0.0,-999.0,77,-99.99,,,0.01,weatherlink.com 1.10,2016-02-09 19:56:00,
2016-02-09 12:19:00,57.1,49.0,30.18,ENE,61,1.0,-999.0,75,-99.99,,,0.01,weatherlink.com 1.10,2016-02-09 20:19:00,
2016-02-09 12:26:00,57.4,49.0,30.17,ENE,69,0.0,-999.0,73,-99.99,,,0.01,weatherlink.com 1.10,2016-02-09 20:26:00,
2016-02-09 12:41:00,57.4,49.0,30.16,ENE,64,0.0,-999.0,74,-99.99,,,0.01,weatherlink.com 1.10,2016-02-09 20:41:00,
2016-02-09 12:56:00,58.0,49.0,30.15,East,85,0.0,-999.0,72,-99.99,,,0.01,weatherlink.com 1.10,2016-02-09 20:56:00,
2016-02-09 13:19:00,59.7,49.0,30.14,East,85,0.0,-999.0,68,-99.99,,,0.01,weatherlink.com 1.10,2016-02-09 21:19:00,
2016-02-09 13:26:00,61.7,50.0,30.14,SE,146,0.0,-999.0,65,-99.99,,,0.01,weatherlink.com 1.10,2016-02-09 21:26:00,
2016-02-09 13:41:00,57.4,48.0,30.14,NW,308,2.0,-999.0,70,-99.99,,,0.01,weatherlink.com 1.10,2016-02-09 21:41:00,
2016-02-09 13:56:00,55.0,47.0,30.14,West,271,5.0,-999.0,74,-99.99,,,0.01,weatherlink.com 1.10,2016-02-09 21:56:00,